Time;durP1;ratioP1;P1;durP2;ratioP2;P2;SDS_P1;SDS_P2;PMS_P1;PMS_P2;Temp;Humidity;BMP_temperature;BMP_pressure;BME280_temperature;BME280_humidity;BME280_pressure;Samples;Min_cycle;Max_cycle;Signal;HPM_P1;HPM_P2
2023/09/09 00:00:46;;;;;;;31.95;28.65;;;18.40;99.90;;;;;;5069479;28;20440;-60
2023/09/09 00:03:12;;;;;;;29.75;26.73;;;18.40;99.90;;;;;;5067040;28;20043;-60
2023/09/09 00:05:37;;;;;;;33.88;29.13;;;18.40;99.90;;;;;;5052409;28;20049;-61
2023/09/09 00:08:03;;;;;;;28.90;25.45;;;18.50;99.90;;;;;;5052143;28;20418;-60
2023/09/09 00:10:29;;;;;;;28.88;25.42;;;18.50;99.90;;;;;;5065481;28;20741;-60
2023/09/09 00:12:58;;;;;;;;;;;18.50;99.90;;;;;;5053471;28;20049;-60
2023/09/09 00:15:24;;;;;;;26.73;23.63;;;18.50;99.90;;;;;;5064027;28;20018;-61
2023/09/09 00:17:50;;;;;;;32.17;26.63;;;18.60;99.90;;;;;;5058165;28;20581;-60
2023/09/09 00:20:16;;;;;;;33.60;28.23;;;18.50;99.90;;;;;;5062671;28;20041;-60
2023/09/09 00:22:42;;;;;;;38.47;29.40;;;18.50;99.90;;;;;;5054732;28;20490;-59
2023/09/09 00:25:08;;;;;;;31.55;28.40;;;18.50;99.90;;;;;;5050870;28;20512;-60
2023/09/09 00:27:33;;;;;;;33.78;30.20;;;18.40;99.90;;;;;;5051740;28;20040;-60
2023/09/09 00:29:59;;;;;;;;;;;18.40;99.90;;;;;;5059329;28;20029;-60
2023/09/09 00:32:24;;;;;;;31.73;23.77;;;18.40;99.90;;;;;;5051074;28;19926;-60
2023/09/09 00:34:52;;;;;;;33.90;28.55;;;18.30;99.90;;;;;;5052402;28;20037;-61
2023/09/09 00:37:17;;;;;;;42.67;34.10;;;18.30;99.90;;;;;;5065738;28;20056;-60
2023/09/09 00:39:43;;;;;;;46.20;35.55;;;18.20;99.90;;;;;;5057938;28;20060;-59
2023/09/09 00:42:08;;;;;;;29.95;27.02;;;18.20;99.90;;;;;;5052035;28;20033;-60
2023/09/09 00:44:34;;;;;;;27.77;25.08;;;18.10;99.90;;;;;;5061033;28;20501;-61
2023/09/09 00:47:00;;;;;;;24.75;22.45;;;18.10;99.90;;;;;;5066635;28;20044;-60
2023/09/09 00:49:26;;;;;;;26.60;24.05;;;18.00;99.90;;;;;;5062293;28;20572;-60
2023/09/09 00:51:53;;;;;;;22.83;20.65;;;18.00;99.90;;;;;;5051539;28;20441;-60
2023/09/09 00:54:18;;;;;;;27.70;24.95;;;18.00;99.90;;;;;;5050542;28;20171;-60
2023/09/09 00:56:45;;;;;;;31.15;27.85;;;17.90;99.90;;;;;;5050239;28;20526;-60
2023/09/09 00:59:12;;;;;;;29.90;26.80;;;17.90;99.90;;;;;;5050968;28;20440;-58
2023/09/09 01:01:37;;;;;;;26.58;21.70;;;17.80;99.90;;;;;;5051687;28;20067;-61
2023/09/09 01:04:03;;;;;;;18.33;16.42;;;17.80;99.90;;;;;;5067991;28;20127;-60
2023/09/09 01:06:29;;;;;;;24.05;20.35;;;17.80;99.90;;;;;;5066674;28;20044;-59
2023/09/09 01:08:55;;;;;;;25.95;22.20;;;17.80;99.90;;;;;;5050962;28;20056;-60
2023/09/09 01:11:20;;;;;;;;;;;17.80;99.90;;;;;;5051965;28;20083;-60
2023/09/09 01:13:46;;;;;;;23.92;21.42;;;17.80;99.90;;;;;;5060033;28;19927;-60
2023/09/09 01:16:13;;;;;;;26.20;22.85;;;17.80;99.90;;;;;;5067014;28;20090;-61
2023/09/09 01:18:38;;;;;;;25.63;21.77;;;17.80;99.90;;;;;;5054484;28;20111;-60
2023/09/09 01:21:08;;;;;;;22.15;19.90;;;17.90;99.90;;;;;;5054337;28;20429;-60
2023/09/09 01:23:35;;;;;;;19.75;17.85;;;17.90;99.90;;;;;;5066966;28;20428;-60
2023/09/09 01:26:00;;;;;;;18.60;16.85;;;17.90;99.90;;;;;;5067569;28;20264;-60
2023/09/09 01:28:26;;;;;;;18.17;16.17;;;18.00;99.90;;;;;;5065642;28;20502;-60
2023/09/09 01:30:53;;;;;;;17.75;16.08;;;18.00;99.90;;;;;;5064527;28;20137;-60
2023/09/09 01:33:18;;;;;;;18.50;16.55;;;18.00;99.90;;;;;;5066894;28;20064;-60
2023/09/09 01:35:46;;;;;;;23.70;19.13;;;18.10;99.90;;;;;;5067330;28;20504;-60
2023/09/09 01:38:12;;;;;;;19.25;17.15;;;18.10;99.90;;;;;;5067171;28;20410;-60
2023/09/09 01:40:38;;;;;;;20.25;18.02;;;18.00;99.90;;;;;;5064384;28;20041;-59
2023/09/09 01:43:03;;;;;;;20.10;17.77;;;18.00;99.90;;;;;;5061844;28;20506;-60
2023/09/09 01:45:29;;;;;;;18.23;16.30;;;17.90;99.90;;;;;;5051614;28;20067;-59
2023/09/09 01:47:55;;;;;;;18.27;16.58;;;17.90;99.90;;;;;;5068304;28;20048;-60
2023/09/09 01:50:21;;;;;;;21.60;17.67;;;17.80;99.90;;;;;;5066802;28;20428;-61
2023/09/09 01:52:46;;;;;;;20.90;17.60;;;17.80;99.90;;;;;;5067476;28;20032;-59
2023/09/09 01:55:12;;;;;;;20.33;18.48;;;17.80;99.90;;;;;;5066993;28;20094;-60
2023/09/09 01:57:37;;;;;;;25.60;22.90;;;17.90;99.90;;;;;;5067239;28;20032;-60
2023/09/09 02:00:09;;;;;;;26.20;23.40;;;17.90;99.90;;;;;;5065728;28;20402;-60
2023/09/09 02:02:35;;;;;;;22.77;19.92;;;17.80;99.90;;;;;;5064366;28;20041;-60
2023/09/09 02:05:01;;;;;;;21.00;18.88;;;17.80;99.90;;;;;;5061731;28;20041;-60
2023/09/09 02:07:27;;;;;;;24.23;21.70;;;17.70;99.90;;;;;;5056357;28;20043;-61
2023/09/09 02:09:53;;;;;;;26.90;24.30;;;17.70;99.90;;;;;;5066354;28;20040;-60
2023/09/09 02:12:18;;;;;;;28.27;24.70;;;17.70;99.90;;;;;;5065901;28;20111;-60
2023/09/09 02:14:44;;;;;;;29.67;26.35;;;17.60;99.90;;;;;;5065457;28;20113;-59
2023/09/09 02:17:11;;;;;;;28.55;25.63;;;17.60;99.90;;;;;;5063076;28;20037;-60
2023/09/09 02:19:37;;;;;;;27.00;24.10;;;17.60;99.90;;;;;;5049875;28;20064;-60
2023/09/09 02:22:04;;;;;;;27.00;24.27;;;17.60;99.90;;;;;;5065011;28;20482;-60
2023/09/09 02:24:29;;;;;;;26.88;24.08;;;17.60;99.90;;;;;;5067179;28;20421;-60
2023/09/09 02:26:55;;;;;;;28.77;22.55;;;17.60;99.90;;;;;;5059771;28;20128;-60
2023/09/09 02:29:20;;;;;;;23.48;21.08;;;17.60;99.90;;;;;;5061712;28;20045;-60
2023/09/09 02:31:46;;;;;;;25.60;23.08;;;17.60;99.90;;;;;;5055772;28;20041;-60
2023/09/09 02:34:11;;;;;;;27.25;24.35;;;17.50;99.90;;;;;;5056512;28;20033;-59
2023/09/09 02:36:42;;;;;;;27.42;24.73;;;17.50;99.90;;;;;;5055280;28;20048;-61
2023/09/09 02:39:08;;;;;;;26.42;23.73;;;17.50;99.90;;;;;;5050619;28;20037;-60
2023/09/09 02:41:33;;;;;;;27.65;24.15;;;17.40;99.90;;;;;;5056547;28;20040;-60
2023/09/09 02:43:59;;;;;;;28.02;25.23;;;17.40;99.90;;;;;;5067437;28;20043;-58
2023/09/09 02:46:25;;;;;;;25.35;22.85;;;17.40;99.90;;;;;;5058077;28;20187;-60
2023/09/09 02:48:51;;;;;;;23.60;21.27;;;17.40;99.90;;;;;;5032257;23;20053;-75
2023/09/09 02:51:17;;;;;;;26.98;24.17;;;17.50;99.90;;;;;;5009693;28;20060;-75
2023/09/09 02:53:43;;;;;;;27.23;24.55;;;17.40;99.90;;;;;;5012765;23;20054;-60
2023/09/09 02:56:08;;;;;;;26.73;22.55;;;17.40;99.90;;;;;;4989682;28;20081;-58
2023/09/09 02:58:34;;;;;;;24.65;22.25;;;17.40;99.90;;;;;;4989319;28;20057;-58
2023/09/09 03:01:04;;;;;;;25.15;22.60;;;17.40;99.90;;;;;;4988385;28;20120;-57
2023/09/09 03:03:31;;;;;;;25.42;22.88;;;17.40;99.90;;;;;;4987658;28;20042;-60
2023/09/09 03:05:57;;;;;;;18.73;17.05;;;17.40;99.90;;;;;;4988343;28;20053;-58
2023/09/09 03:08:23;;;;;;;20.40;18.45;;;17.40;99.90;;;;;;4988482;28;20490;-59
2023/09/09 03:10:49;;;;;;;25.23;22.75;;;17.40;99.90;;;;;;4989043;28;20038;-59
2023/09/09 03:13:14;;;;;;;27.90;25.02;;;17.40;99.90;;;;;;4988823;28;20125;-59
2023/09/09 03:15:40;;;;;;;24.90;22.52;;;17.40;99.90;;;;;;4989780;28;20404;-59
2023/09/09 03:18:06;;;;;;;27.13;24.42;;;17.40;99.90;;;;;;4991806;28;20049;-60
2023/09/09 03:20:31;;;;;;;31.08;26.10;;;17.30;99.90;;;;;;4990695;28;20406;-60
2023/09/09 03:22:59;;;;;;;27.13;24.67;;;17.40;99.90;;;;;;4992267;28;20057;-58
2023/09/09 03:25:25;;;;;;;31.40;28.25;;;17.40;99.90;;;;;;4992547;28;20042;-60
2023/09/09 03:27:51;;;;;;;28.75;25.83;;;17.40;99.90;;;;;;4992006;28;20030;-58
2023/09/09 03:30:16;;;;;;;23.48;21.02;;;17.30;99.90;;;;;;4989995;28;20093;-58
2023/09/09 03:32:42;;;;;;;22.75;20.50;;;17.30;99.90;;;;;;4992169;28;20038;-59
2023/09/09 03:35:08;;;;;;;25.13;22.77;;;17.30;99.90;;;;;;4991594;28;20038;-60
2023/09/09 03:37:34;;;;;;;26.27;20.08;;;17.20;99.90;;;;;;4991983;28;20042;-59
2023/09/09 03:39:59;;;;;;;24.35;21.77;;;17.20;99.90;;;;;;4991934;28;20030;-59
2023/09/09 03:42:25;;;;;;;22.55;20.42;;;17.20;99.90;;;;;;4990974;28;20034;-58
2023/09/09 03:44:52;;;;;;;20.83;18.92;;;17.20;99.90;;;;;;4991501;28;20038;-60
2023/09/09 03:47:18;;;;;;;20.33;18.42;;;17.10;99.90;;;;;;4992081;28;20053;-60
2023/09/09 03:49:44;;;;;;;19.92;18.13;;;17.20;99.90;;;;;;4991815;28;20046;-60
2023/09/09 03:52:09;;;;;;;23.33;21.25;;;17.20;99.90;;;;;;4991819;28;20117;-58
2023/09/09 03:54:35;;;;;;;24.42;22.20;;;17.20;99.90;;;;;;4991714;28;20037;-60
2023/09/09 03:57:00;;;;;;;26.33;23.88;;;17.20;99.90;;;;;;4991677;28;20167;-58
2023/09/09 03:59:29;;;;;;;36.92;33.42;;;17.10;99.90;;;;;;4991032;28;20038;-59
2023/09/09 04:01:54;;;;;;;34.90;31.55;;;17.10;99.90;;;;;;4991734;28;20038;-60
2023/09/09 04:04:20;;;;;;;28.90;25.98;;;17.00;99.90;;;;;;4991794;28;20034;-60
2023/09/09 04:06:46;;;;;;;53.05;25.45;;;17.00;99.90;;;;;;4991603;28;20042;-60
2023/09/09 04:09:20;;;;;;;34.70;31.20;;;17.00;99.90;;;;;;4990912;28;20177;-58
2023/09/09 04:11:46;;;;;;;49.28;37.08;;;16.90;99.90;;;;;;4991379;28;20045;-59
2023/09/09 04:14:11;;;;;;;43.83;38.38;;;16.80;99.90;;;;;;4990861;28;20034;-59
2023/09/09 04:16:37;;;;;;;43.95;39.28;;;16.80;99.90;;;;;;4991692;28;20149;-60
2023/09/09 04:19:02;;;;;;;56.35;49.63;;;16.70;99.90;;;;;;4990850;28;20034;-60
2023/09/09 04:21:29;;;;;;;54.90;45.58;;;16.60;99.90;;;;;;4991624;28;20185;-60
2023/09/09 04:23:54;;;;;;;47.85;39.47;;;16.60;99.90;;;;;;4991236;28;20042;-60
2023/09/09 04:26:20;;;;;;;45.50;38.00;;;16.50;99.90;;;;;;4991723;28;20038;-59
2023/09/09 04:28:46;;;;;;;61.33;50.10;;;16.40;99.90;;;;;;4989750;28;20041;-59
2023/09/09 04:31:11;;;;;;;70.22;56.22;;;16.40;99.90;;;;;;4991427;28;20053;-60
2023/09/09 04:33:37;;;;;;;56.40;50.20;;;16.30;99.90;;;;;;4989725;28;20042;-60
2023/09/09 04:36:03;;;;;;;51.40;46.08;;;16.30;99.90;;;;;;4990818;28;20034;-59
2023/09/09 04:38:28;;;;;;;48.72;43.65;;;16.20;99.90;;;;;;4990678;28;20050;-60
2023/09/09 04:40:54;;;;;;;37.30;33.67;;;16.20;99.90;;;;;;4990731;28;20052;-61
2023/09/09 04:43:20;;;;;;;31.60;28.83;;;16.20;99.90;;;;;;4990514;28;20077;-58
2023/09/09 04:45:46;;;;;;;35.85;29.35;;;16.10;99.90;;;;;;4990784;28;20046;-58
2023/09/09 04:48:12;;;;;;;32.85;29.75;;;16.10;99.90;;;;;;4990544;28;20046;-59
2023/09/09 04:50:37;;;;;;;44.53;40.03;;;16.10;99.90;;;;;;4990952;28;20125;-59
2023/09/09 04:53:04;;;;;;;30.83;27.90;;;16.10;99.90;;;;;;4990975;28;20076;-60
2023/09/09 04:55:30;;;;;;;30.27;27.08;;;16.10;99.90;;;;;;4990501;28;20046;-61
2023/09/09 04:57:55;;;;;;;30.55;27.33;;;16.10;99.90;;;;;;4989436;28;20038;-60
2023/09/09 05:00:21;;;;;;;33.47;29.95;;;16.20;99.90;;;;;;4990334;28;20041;-60
2023/09/09 05:02:47;;;;;;;32.25;28.98;;;16.20;99.90;;;;;;4990497;28;20038;-60
2023/09/09 05:05:12;;;;;;;34.30;30.60;;;16.30;99.90;;;;;;4990346;28;20041;-59
2023/09/09 05:07:38;;;;;;;33.17;29.55;;;16.30;99.90;;;;;;4989450;28;20062;-60
2023/09/09 05:10:04;;;;;;;32.13;28.42;;;16.30;99.90;;;;;;4989303;28;20038;-59
2023/09/09 05:12:31;;;;;;;32.25;28.83;;;16.40;99.90;;;;;;4989978;28;20038;-58
2023/09/09 05:14:57;;;;;;;33.80;30.17;;;16.50;99.90;;;;;;4989816;28;20072;-59
2023/09/09 05:17:22;;;;;;;36.05;32.05;;;16.50;99.90;;;;;;4990234;28;20030;-60
2023/09/09 05:19:48;;;;;;;35.88;32.08;;;16.60;99.90;;;;;;4989942;28;20421;-59
2023/09/09 05:22:13;;;;;;;33.58;30.08;;;16.60;99.90;;;;;;4994037;28;20038;-59
2023/09/09 05:24:39;;;;;;;36.42;31.85;;;16.60;99.90;;;;;;4993754;28;20921;-60
2023/09/09 05:27:05;;;;;;;39.00;33.47;;;16.60;99.90;;;;;;4989921;28;20042;-59
2023/09/09 05:29:31;;;;;;;39.80;35.55;;;16.60;99.90;;;;;;4987824;28;20054;-59
2023/09/09 05:31:57;;;;;;;34.25;30.75;;;16.60;99.90;;;;;;4982521;28;20378;-58
2023/09/09 05:34:22;;;;;;;43.83;37.88;;;16.60;99.90;;;;;;4987791;28;20050;-59
2023/09/09 05:36:48;;;;;;;54.05;48.03;;;16.70;99.90;;;;;;4989755;28;20089;-59
2023/09/09 05:39:14;;;;;;;55.92;48.42;;;16.70;99.90;;;;;;4988689;28;20042;-59
2023/09/09 05:41:39;;;;;;;54.17;48.35;;;16.80;99.90;;;;;;4987423;28;20034;-59
2023/09/09 05:44:05;;;;;;;47.53;42.65;;;16.90;99.90;;;;;;4989862;28;20044;-59
2023/09/09 05:46:31;;;;;;;41.05;36.80;;;17.00;99.90;;;;;;4988366;28;20499;-59
2023/09/09 05:48:56;;;;;;;38.85;31.83;;;17.00;99.90;;;;;;4988361;28;20070;-58
2023/09/09 05:51:22;;;;;;;39.50;33.53;;;17.00;99.90;;;;;;4988927;28;20041;-58
2023/09/09 05:53:51;;;;;;;40.60;34.03;;;16.90;99.90;;;;;;4989665;28;20038;-60
2023/09/09 05:56:16;;;;;;;44.47;38.63;;;17.00;99.90;;;;;;4989563;28;20045;-61
2023/09/09 05:58:42;;;;;;;46.30;41.50;;;17.00;99.90;;;;;;4986075;28;20393;-61
2023/09/09 06:01:08;;;;;;;50.15;44.80;;;17.10;99.90;;;;;;4986047;28;20110;-60
2023/09/09 06:03:35;;;;;;;54.22;48.60;;;17.30;99.90;;;;;;4989272;28;20046;-58
2023/09/09 06:06:01;;;;;;;56.42;47.95;;;17.50;99.90;;;;;;4989682;28;20052;-60
2023/09/09 06:08:27;;;;;;;;;;;17.60;99.90;;;;;;4988829;28;20068;-61
2023/09/09 06:10:53;;;;;;;49.28;44.17;;;17.80;99.90;;;;;;4989546;28;19917;-60
2023/09/09 06:13:18;;;;;;;50.78;45.28;;;18.00;99.90;;;;;;4989575;28;20493;-60
2023/09/09 06:15:44;;;;;;;49.22;44.03;;;18.20;99.90;;;;;;4988525;28;20069;-60
2023/09/09 06:18:10;;;;;;;47.53;42.53;;;18.30;99.90;;;;;;4988694;28;20092;-59
2023/09/09 06:20:35;;;;;;;45.55;40.67;;;18.50;99.90;;;;;;4988163;28;20042;-60
2023/09/09 06:23:01;;;;;;;45.78;41.05;;;18.70;99.90;;;;;;4989713;28;20034;-61
2023/09/09 06:25:26;;;;;;;45.38;40.50;;;18.80;99.90;;;;;;4989591;28;20117;-59
2023/09/09 06:27:52;;;;;;;43.88;38.83;;;18.90;99.90;;;;;;4981204;28;20066;-60
2023/09/09 06:30:17;;;;;;;;;;;19.10;99.90;;;;;;4989248;28;20476;-59
2023/09/09 06:32:43;;;;;;;45.22;40.45;;;19.20;99.90;;;;;;4989195;28;19928;-60
2023/09/09 06:35:08;;;;;;;;;;;19.30;99.90;;;;;;4990223;28;20449;-61
2023/09/09 06:37:34;;;;;;;45.72;40.75;;;19.40;99.90;;;;;;4989401;28;20009;-60
2023/09/09 06:40:00;;;;;;;44.15;39.72;;;19.50;99.90;;;;;;4987306;28;20069;-60
2023/09/09 06:42:25;;;;;;;;;;;19.60;99.90;;;;;;4990237;28;20583;-59
2023/09/09 06:44:51;;;;;;;43.63;39.22;;;19.60;99.90;;;;;;4989005;28;19924;-60
2023/09/09 06:47:16;;;;;;;48.72;39.38;;;19.70;99.90;;;;;;4988403;28;20082;-58
2023/09/09 06:49:42;;;;;;;46.13;41.22;;;19.80;99.90;;;;;;4979802;28;20042;-59
2023/09/09 06:52:07;;;;;;;36.90;33.00;;;19.90;99.90;;;;;;4991320;28;20034;-61
2023/09/09 06:54:33;;;;;;;;;;;20.00;99.90;;;;;;4993100;28;20047;-61
2023/09/09 06:56:59;;;;;;;34.50;30.92;;;20.10;99.90;;;;;;4993014;28;20307;-61
2023/09/09 06:59:25;;;;;;;36.95;32.67;;;20.20;99.90;;;;;;4992859;28;20057;-61
2023/09/09 07:01:51;;;;;;;40.08;35.90;;;20.40;99.90;;;;;;4993241;28;20031;-60
2023/09/09 07:04:16;;;;;;;42.35;38.13;;;20.50;99.90;;;;;;4991163;28;20046;-60
2023/09/09 07:06:42;;;;;;;40.75;36.78;;;20.60;99.90;;;;;;4992877;28;20416;-61
2023/09/09 07:09:09;;;;;;;;;;;20.70;99.90;;;;;;4991871;28;20030;-61
2023/09/09 07:11:35;;;;;;;39.15;35.13;;;20.90;99.90;;;;;;4990383;28;19976;-60
2023/09/09 07:14:00;;;;;;;;;;;21.00;99.90;;;;;;4991031;28;20038;-60
2023/09/09 07:16:30;;;;;;;33.70;30.40;;;21.20;99.90;;;;;;4991238;28;19926;-61
2023/09/09 07:18:56;;;;;;;35.95;32.10;;;21.30;99.90;;;;;;4990847;28;20528;-61
2023/09/09 07:21:22;;;;;;;;;;;21.30;99.90;;;;;;4990804;28;20074;-61
2023/09/09 07:23:48;;;;;;;32.25;28.95;;;21.40;99.90;;;;;;4988569;28;19922;-61
2023/09/09 07:26:13;;;;;;;;;;;21.50;99.90;;;;;;4991116;28;20076;-61
2023/09/09 07:28:39;;;;;;;32.53;29.00;;;21.70;99.90;;;;;;4986665;28;19917;-61
2023/09/09 07:31:05;;;;;;;;;;;21.70;99.90;;;;;;4987794;28;20455;-59
2023/09/09 07:33:30;;;;;;;33.03;29.45;;;21.80;99.90;;;;;;4988353;28;20001;-60
2023/09/09 07:35:56;;;;;;;;;;;21.90;99.90;;;;;;4989342;28;20085;-60
2023/09/09 07:38:21;;;;;;;32.92;29.48;;;22.00;99.90;;;;;;4987087;28;19922;-60
2023/09/09 07:40:47;;;;;;;;;;;22.10;99.90;;;;;;4990127;28;20473;-60
2023/09/09 07:43:14;;;;;;;33.42;28.42;;;22.30;99.90;;;;;;4987127;28;19917;-58
2023/09/09 07:45:47;;;;;;;34.70;29.27;;;22.30;99.90;;;;;;4991557;28;20054;-60
2023/09/09 07:48:13;;;;;;;33.08;28.95;;;22.40;99.90;;;;;;4987246;28;20046;-60
2023/09/09 07:50:38;;;;;;;;;;;22.50;99.90;;;;;;4984084;28;20043;-60
2023/09/09 07:53:04;;;;;;;35.55;30.55;;;22.60;99.90;;;;;;4978338;28;19926;-61
2023/09/09 07:55:29;;;;;;;;;;;22.70;99.90;;;;;;4989178;28;20039;-59
2023/09/09 07:57:55;;;;;;;34.97;31.17;;;22.90;99.90;;;;;;4988973;28;19976;-60
2023/09/09 08:00:20;;;;;;;42.28;33.38;;;23.00;99.90;;;;;;4991312;28;20039;-58
2023/09/09 08:02:46;;;;;;;;;;;23.00;99.90;;;;;;4993815;28;20038;-60
2023/09/09 08:05:13;;;;;;;38.10;31.75;;;23.10;99.90;;;;;;4994206;28;19932;-58
2023/09/09 08:07:39;;;;;;;36.35;30.08;;;23.20;99.90;;;;;;4991853;28;20042;-59
2023/09/09 08:10:05;;;;;;;;;;;23.20;99.90;;;;;;4989996;28;20532;-60
2023/09/09 08:12:30;;;;;;;35.28;31.60;;;23.30;99.90;;;;;;4988389;28;19925;-59
2023/09/09 08:15:04;;;;;;;37.25;32.97;;;23.30;99.90;;;;;;4988017;28;20062;-59
2023/09/09 08:17:30;;;;;;;39.70;31.95;;;23.40;99.90;;;;;;4991067;28;20038;-59
2023/09/09 08:19:55;;;;;;;40.03;32.33;;;23.40;99.90;;;;;;4989695;28;20614;-59
2023/09/09 08:22:21;;;;;;;35.95;32.20;;;23.50;99.90;;;;;;4989262;28;20050;-60
2023/09/09 08:24:47;;;;;;;37.95;33.15;;;23.60;99.90;;;;;;4990364;28;20034;-60
2023/09/09 08:27:13;;;;;;;39.70;32.60;;;23.70;99.90;;;;;;4989992;28;20042;-59
2023/09/09 08:29:39;;;;;;;36.83;32.60;;;23.80;99.90;;;;;;4987671;28;20053;-59
2023/09/09 08:32:05;;;;;;;36.15;32.10;;;23.80;99.90;;;;;;4989132;28;20034;-59
2023/09/09 08:34:30;;;;;;;38.25;34.28;;;23.90;99.90;;;;;;4987324;28;20524;-59
2023/09/09 08:36:56;;;;;;;38.35;34.30;;;23.90;99.90;;;;;;4989774;28;20042;-57
2023/09/09 08:39:22;;;;;;;39.78;35.45;;;24.00;99.90;;;;;;4985063;28;20031;-59
2023/09/09 08:42:10;;;;;;;39.75;33.17;;;24.10;99.90;;;;;;4987872;28;20408;-59
2023/09/09 08:44:50;;;;;;;44.95;33.60;;;24.10;99.90;;;;;;4988371;28;20125;-60
2023/09/09 08:47:18;;;;;;;41.42;35.03;;;24.30;99.90;;;;;;4987398;28;20535;-59
2023/09/09 08:49:47;;;;;;;36.60;32.30;;;24.40;99.90;;;;;;4980421;28;20062;-61
2023/09/09 08:52:21;;;;;;;37.08;30.73;;;24.50;99.90;;;;;;4989149;28;20493;-61
2023/09/09 08:54:48;;;;;;;34.78;31.08;;;24.60;99.90;;;;;;4988100;28;20030;-61
2023/09/09 08:57:14;;;;;;;35.53;31.73;;;24.90;99.90;;;;;;4987694;28;20521;-61
2023/09/09 08:59:41;;;;;;;37.45;33.38;;;24.90;99.90;;;;;;4984448;28;20034;-61
2023/09/09 09:02:09;;;;;;;38.50;33.92;;;25.00;99.90;;;;;;4989499;28;20038;-59
2023/09/09 09:04:35;;;;;;;40.38;32.72;;;25.00;99.90;;;;;;4988241;28;20050;-60
2023/09/09 09:07:01;;;;;;;39.83;31.98;;;25.00;99.90;;;;;;4987166;28;20523;-62
2023/09/09 09:09:31;;;;;;;37.58;33.60;;;25.10;99.90;;;;;;4979056;28;20456;-63
2023/09/09 09:12:03;;;;;;;37.28;33.35;;;25.10;99.90;;;;;;4970771;28;20042;-63
2023/09/09 09:14:29;;;;;;;36.42;31.23;;;25.20;99.90;;;;;;4980117;28;20043;-64
2023/09/09 09:16:55;;;;;;;36.13;32.40;;;25.30;99.90;;;;;;4986766;28;20184;-63
2023/09/09 09:19:28;;;;;;;35.17;30.83;;;25.30;99.90;;;;;;4986644;28;20042;-63
2023/09/09 09:21:55;;;;;;;40.58;34.72;;;25.30;99.90;;;;;;4986911;28;20524;-64
2023/09/09 09:24:28;;;;;;;37.10;32.28;;;25.40;99.90;;;;;;4987120;28;20563;-63
2023/09/09 09:26:55;;;;;;;36.58;32.08;;;25.50;99.90;;;;;;4983881;28;20064;-64
2023/09/09 09:29:21;;;;;;;37.33;32.10;;;25.50;99.90;;;;;;4988871;28;20038;-63
2023/09/09 09:31:51;;;;;;;34.30;30.23;;;25.60;99.90;;;;;;4988837;28;20557;-63
2023/09/09 09:34:19;;;;;;;33.67;30.25;;;25.70;99.90;;;;;;4986915;28;20539;-63
2023/09/09 09:36:45;;;;;;;36.28;31.05;;;25.80;99.90;;;;;;4989278;28;20038;-63
2023/09/09 09:39:11;;;;;;;33.13;29.75;;;25.90;99.90;;;;;;4988229;28;20513;-63
2023/09/09 09:41:41;;;;;;;38.35;32.22;;;26.00;99.90;;;;;;4989371;28;20069;-66
2023/09/09 09:44:20;;;;;;;34.50;30.27;;;26.10;99.90;;;;;;4987249;28;20077;-63
2023/09/09 09:47:21;;;;;;;35.20;30.55;;;26.20;99.90;;;;;;4988121;28;20041;-62
2023/09/09 09:49:51;;;;;;;31.83;28.50;;;26.30;99.90;;;;;;4951587;28;20046;-62
2023/09/09 09:52:24;;;;;;;34.30;30.55;;;26.30;99.90;;;;;;4962503;28;20424;-65
2023/09/09 09:54:51;;;;;;;32.45;28.98;;;26.40;99.90;;;;;;4936766;28;20035;-65
2023/09/09 09:57:20;;;;;;;32.95;29.52;;;26.50;99.90;;;;;;4944746;28;20526;-63
2023/09/09 09:59:46;;;;;;;29.17;26.05;;;26.60;99.90;;;;;;4944444;28;20050;-64
2023/09/09 10:02:14;;;;;;;32.03;28.00;;;26.80;99.90;;;;;;4957149;28;20031;-64
2023/09/09 10:04:44;;;;;;;28.85;25.08;;;26.90;99.90;;;;;;4959326;28;20552;-64
2023/09/09 10:07:16;;;;;;;30.25;27.02;;;27.00;99.90;;;;;;4953182;28;20090;-65
2023/09/09 10:09:51;;;;;;;30.00;26.77;;;27.10;99.90;;;;;;4961086;28;20043;-65
2023/09/09 10:12:37;;;;;;;26.95;24.05;;;27.20;99.90;;;;;;4960007;28;20038;-64
2023/09/09 10:15:05;;;;;;;29.00;24.13;;;27.20;99.90;;;;;;4960627;28;20051;-64
2023/09/09 10:17:32;;;;;;;30.65;23.80;;;27.30;99.90;;;;;;4958408;28;20656;-63
2023/09/09 10:20:01;;;;;;;27.23;23.98;;;27.50;99.90;;;;;;4957239;28;20118;-63
2023/09/09 10:22:28;;;;;;;32.53;27.50;;;27.60;99.90;;;;;;4956274;28;20087;-63
2023/09/09 10:24:54;;;;;;;27.65;23.45;;;27.70;99.90;;;;;;4986836;28;20062;-65
2023/09/09 10:27:21;;;;;;;25.40;22.90;;;27.80;99.90;;;;;;4992601;28;20042;-63
2023/09/09 10:29:49;;;;;;;30.70;24.58;;;27.90;99.90;;;;;;4993127;28;20046;-64
2023/09/09 10:32:16;;;;;;;29.17;25.73;;;28.00;99.90;;;;;;4993615;28;20068;-64
2023/09/09 10:34:43;;;;;;;32.75;27.23;;;28.20;99.90;;;;;;4975034;28;20031;-65
2023/09/09 10:37:10;;;;;;;29.75;26.77;;;28.30;99.90;;;;;;4992845;28;20452;-63
2023/09/09 10:39:38;;;;;;;28.77;25.30;;;28.40;99.90;;;;;;4991248;28;20080;-65
2023/09/09 10:42:05;;;;;;;31.98;28.73;;;28.50;99.90;;;;;;4991757;28;20064;-66
2023/09/09 10:44:31;;;;;;;32.25;28.35;;;28.60;99.90;;;;;;4990496;28;20061;-63
2023/09/09 10:46:57;;;;;;;28.58;25.60;;;28.60;99.90;;;;;;4991463;28;20034;-62
2023/09/09 10:49:29;;;;;;;31.85;28.58;;;28.70;99.90;;;;;;4995578;28;20034;-62
2023/09/09 10:51:55;;;;;;;31.58;25.83;;;28.80;99.90;;;;;;4994122;28;20057;-63
2023/09/09 10:54:23;;;;;;;27.35;24.42;;;28.90;99.90;;;;;;4991265;28;20042;-63
2023/09/09 10:56:55;;;;;;;28.85;25.67;;;28.90;99.90;;;;;;4992600;28;20061;-63
2023/09/09 10:59:24;;;;;;;28.75;25.70;;;29.00;99.90;;;;;;4992472;28;20046;-65
2023/09/09 11:02:13;;;;;;;29.83;26.75;;;29.00;99.90;;;;;;4990812;28;20400;-63
2023/09/09 11:04:40;;;;;;;31.58;26.30;;;29.10;99.90;;;;;;4992244;28;20054;-64
2023/09/09 11:07:07;;;;;;;31.50;28.20;;;29.20;99.90;;;;;;4992319;28;20066;-63
2023/09/09 11:09:34;;;;;;;36.28;29.25;;;29.30;99.90;;;;;;4991934;28;20064;-63
2023/09/09 11:12:09;;;;;;;33.97;26.38;;;29.20;99.90;;;;;;4992290;28;20113;-62
2023/09/09 11:14:35;;;;;;;33.95;26.73;;;29.20;99.90;;;;;;4991672;28;20494;-63
2023/09/09 11:17:01;;;;;;;26.67;24.17;;;29.20;99.90;;;;;;4992715;28;20125;-63
2023/09/09 11:19:29;;;;;;;29.10;25.88;;;29.40;99.90;;;;;;4993137;28;20039;-63
2023/09/09 11:21:56;;;;;;;35.13;25.10;;;29.50;99.90;;;;;;4992225;28;20089;-63
2023/09/09 11:24:22;;;;;;;27.40;23.23;;;29.50;99.90;;;;;;4993610;28;20057;-63
2023/09/09 11:26:49;;;;;;;24.35;21.95;;;29.60;99.90;;;;;;4992667;28;20042;-64
2023/09/09 11:29:16;;;;;;;29.27;24.08;;;29.80;99.90;;;;;;4993197;28;20042;-64
2023/09/09 11:31:42;;;;;;;22.88;20.60;;;29.80;99.90;;;;;;4991855;28;20046;-64
2023/09/09 11:34:08;;;;;;;22.33;20.02;;;29.90;99.90;;;;;;4993402;28;20040;-64
2023/09/09 11:36:33;;;;;;;25.05;21.67;;;29.90;99.90;;;;;;4992660;28;20038;-64
2023/09/09 11:39:00;;;;;;;23.15;20.77;;;29.90;99.90;;;;;;5007797;28;20539;-64
2023/09/09 11:41:27;;;;;;;24.90;17.92;;;30.00;99.90;;;;;;4992754;28;20042;-65
2023/09/09 11:44:03;;;;;;;19.77;17.52;;;30.00;99.90;;;;;;4987746;28;20031;-62
2023/09/09 11:46:41;;;;;;;25.15;19.20;;;30.10;99.90;;;;;;4992685;28;20038;-62
2023/09/09 11:49:07;;;;;;;20.20;18.13;;;30.20;99.90;;;;;;4991038;28;20170;-62
2023/09/09 11:51:36;;;;;;;23.88;17.40;;;30.20;99.90;;;;;;4992526;28;20466;-62
2023/09/09 11:54:03;;;;;;;21.75;16.92;;;30.20;99.90;;;;;;4991306;28;20422;-64
2023/09/09 11:56:31;;;;;;;21.55;18.20;;;30.20;99.90;;;;;;4991680;28;20043;-63
2023/09/09 11:58:57;;;;;;;23.15;18.83;;;30.30;99.90;;;;;;4990884;28;20100;-63
2023/09/09 12:01:23;;;;;;;20.85;16.15;;;30.30;99.90;;;;;;4992234;28;20664;-63
2023/09/09 12:03:49;;;;;;;22.92;20.67;;;30.40;99.90;;;;;;4991869;28;20038;-63
2023/09/09 12:06:18;;;;;;;23.85;18.10;;;30.50;99.80;;;;;;4979142;28;20124;-63
2023/09/09 12:08:44;;;;;;;20.58;17.48;;;30.50;99.50;;;;;;4989003;28;20042;-63
2023/09/09 12:11:11;;;;;;;23.40;16.63;;;30.60;99.60;;;;;;4990597;28;20034;-62
2023/09/09 12:13:37;;;;;;;24.05;19.10;;;30.60;99.10;;;;;;4987385;28;20054;-63
2023/09/09 12:16:05;;;;;;;24.48;16.83;;;30.60;99.40;;;;;;4982254;28;20071;-63
2023/09/09 12:18:31;;;;;;;18.33;16.52;;;30.60;99.00;;;;;;4990418;28;20076;-64
2023/09/09 12:21:05;;;;;;;18.00;16.15;;;30.60;99.30;;;;;;4991015;28;20038;-63
2023/09/09 12:23:32;;;;;;;20.52;18.38;;;30.70;99.40;;;;;;4981792;28;20038;-64
2023/09/09 12:26:13;;;;;;;22.02;18.13;;;30.60;99.00;;;;;;4991920;28;20077;-63
2023/09/09 12:28:40;;;;;;;26.77;16.42;;;30.50;98.90;;;;;;4990976;28;20049;-63
2023/09/09 12:31:06;;;;;;;21.40;15.98;;;30.50;99.70;;;;;;4991512;28;20081;-63